Time;durP1;ratioP1;P1;durP2;ratioP2;P2;SDS_P1;SDS_P2;PMS_P1;PMS_P2;Temp;Humidity;BMP_temperature;BMP_pressure;BME280_temperature;BME280_humidity;BME280_pressure;Samples;Min_cycle;Max_cycle;Signal;HPM_P1;HPM_P2
2021/05/07 00:01:17;;;;;;;6.22;4.95;;;;;;;8.89;72.14;99265.06;10283102;28;21273;-60
2021/05/07 00:06:18;;;;;;;6.20;5.60;;;;;;;8.85;73.09;99260.03;10291923;28;20046;-61
2021/05/07 00:11:19;;;;;;;5.70;4.93;;;;;;;8.89;72.61;99270.38;10283173;28;20050;-61
2021/05/07 00:16:21;;;;;;;5.35;4.85;;;;;;;8.91;72.90;99268.44;10279727;28;20248;-62
2021/05/07 00:21:22;;;;;;;5.28;4.78;;;;;;;8.95;72.87;99283.13;10280627;28;20046;-63
2021/05/07 00:26:23;;;;;;;4.75;4.32;;;;;;;8.91;72.75;99276.41;10270287;28;20624;-59
2021/05/07 00:31:24;;;;;;;5.85;5.35;;;;;;;8.88;73.16;99274.03;10278453;28;20054;-60
2021/05/07 00:36:25;;;;;;;5.95;5.20;;;;;;;8.85;72.44;99281.28;10273669;28;20057;-62
2021/05/07 00:41:26;;;;;;;5.50;4.95;;;;;;;8.90;72.90;99280.03;10274593;28;20051;-62
2021/05/07 00:46:27;;;;;;;5.63;5.00;;;;;;;8.96;72.38;99282.13;10278628;28;20496;-63
2021/05/07 00:51:28;;;;;;;5.95;5.40;;;;;;;8.93;71.83;99277.09;10281327;28;20066;-61
2021/05/07 00:56:29;;;;;;;5.10;4.70;;;;;;;8.94;72.76;99281.44;10281909;28;20070;-60
2021/05/07 01:01:31;;;;;;;5.43;4.80;;;;;;;8.79;73.06;99280.97;10283037;28;20050;-62
2021/05/07 01:06:32;;;;;;;5.05;4.55;;;;;;;8.79;73.83;99279.16;10282149;28;20055;-60
2021/05/07 01:11:34;;;;;;;5.95;4.80;;;;;;;8.65;73.48;99274.25;10292770;28;20085;-63
2021/05/07 01:16:35;;;;;;;5.45;4.80;;;;;;;8.78;74.52;99284.59;10303567;28;20213;-61
2021/05/07 01:21:36;;;;;;;5.30;4.70;;;;;;;8.81;74.52;99285.19;10276450;28;20047;-62
2021/05/07 01:26:43;;;;;;;5.55;5.13;;;;;;;8.82;73.84;99281.53;10286951;28;20050;-62
2021/05/07 01:31:45;;;;;;;5.55;4.20;;;;;;;8.81;73.07;99274.56;10288835;28;20457;-60
2021/05/07 01:36:46;;;;;;;5.07;4.68;;;;;;;8.70;74.74;99281.81;10291276;28;20069;-59
2021/05/07 01:41:47;;;;;;;4.70;4.30;;;;;;;8.73;73.77;99287.66;10289394;28;20057;-61
2021/05/07 01:46:48;;;;;;;5.07;4.57;;;;;;;8.72;73.50;99296.63;10287879;28;20054;-62
2021/05/07 01:51:49;;;;;;;5.32;4.60;;;;;;;8.71;73.53;99299.38;10286693;28;20058;-60
2021/05/07 01:56:50;;;;;;;4.35;3.95;;;;;;;8.42;73.89;99306.25;10298878;28;20061;-60
2021/05/07 02:01:51;;;;;;;7.55;5.13;;;;;;;8.51;74.23;99314.41;10286821;28;20054;-62
2021/05/07 02:06:52;;;;;;;4.55;4.10;;;;;;;8.57;74.82;99314.72;10286466;28;20093;-64
2021/05/07 02:11:53;;;;;;;4.82;4.35;;;;;;;8.63;74.69;99326.59;10281107;28;20396;-61
2021/05/07 02:16:54;;;;;;;4.32;3.92;;;;;;;8.69;74.05;99326.03;10268778;28;20054;-62
2021/05/07 02:21:55;;;;;;;5.03;4.63;;;;;;;8.75;74.68;99322.03;10274013;28;20047;-59
2021/05/07 02:26:56;;;;;;;5.20;4.40;;;;;;;8.73;74.49;99332.78;10303943;28;20475;-60
2021/05/07 02:31:57;;;;;;;6.57;4.78;;;;;;;8.77;73.89;99333.38;10288903;28;20094;-63
2021/05/07 02:36:58;;;;;;;5.18;4.68;;;;;;;8.84;73.80;99348.63;10282813;28;20070;-63
2021/05/07 02:41:59;;;;;;;5.35;4.85;;;;;;;8.95;73.95;99357.44;10277318;28;20599;-62
2021/05/07 02:47:04;;;;;;;5.93;4.28;;;;;;;8.83;72.45;99372.63;10284463;28;20081;-61
2021/05/07 02:52:05;;;;;;;4.97;4.47;;;;;;;8.50;73.72;99377.22;10298558;28;20112;-60
2021/05/07 02:57:07;;;;;;;5.28;4.72;;;;;;;8.29;74.19;99380.69;10281276;28;20050;-59
2021/05/07 03:02:08;;;;;;;5.85;5.13;;;;;;;8.49;74.29;99389.63;10290808;28;20051;-60
2021/05/07 03:07:09;;;;;;;5.72;5.22;;;;;;;8.62;73.07;99386.78;10282897;28;20447;-63
2021/05/07 03:12:10;;;;;;;7.97;7.18;;;;;;;8.25;67.53;99389.03;10287517;28;20124;-62
2021/05/07 03:17:11;;;;;;;8.75;7.93;;;;;;;8.06;68.11;99403.00;10288466;28;20050;-63
2021/05/07 03:22:12;;;;;;;9.60;8.80;;;;;;;8.31;66.94;99415.03;10280309;28;20058;-69
2021/05/07 03:27:13;;;;;;;8.95;8.18;;;;;;;8.27;64.21;99410.97;10282434;28;20380;-62
2021/05/07 03:32:14;;;;;;;9.57;8.68;;;;;;;7.66;65.43;99430.16;10291821;28;20511;-63
2021/05/07 03:37:17;;;;;;;10.23;9.32;;;;;;;7.72;65.54;99429.66;10280281;28;20124;-63
2021/05/07 03:42:19;;;;;;;11.00;9.90;;;;;;;7.71;65.43;99438.56;10284750;28;20058;-60
2021/05/07 03:47:20;;;;;;;12.02;10.93;;;;;;;7.85;65.15;99453.31;10285396;28;20058;-62
2021/05/07 03:52:21;;;;;;;12.68;11.38;;;;;;;7.88;65.06;99456.56;10281689;28;20054;-64
2021/05/07 03:57:25;;;;;;;13.68;12.38;;;;;;;7.94;66.03;99473.75;10284105;28;20105;-63
2021/05/07 04:02:26;;;;;;;13.15;12.02;;;;;;;8.01;64.97;99480.25;10273510;28;20050;-63
2021/05/07 04:07:29;;;;;;;13.20;12.00;;;;;;;7.59;63.81;99477.47;10275580;28;20069;-63
2021/05/07 04:17:49;;;;;;;13.75;12.45;;;;;;;7.51;64.12;99506.38;10309497;23;20046;-57
2021/05/07 04:22:50;;;;;;;15.05;13.55;;;;;;;7.33;64.53;99514.81;10297614;28;20270;-54
2021/05/07 04:27:51;;;;;;;14.60;13.30;;;;;;;7.46;64.48;99527.09;10297006;28;20078;-55
2021/05/07 04:32:52;;;;;;;15.38;13.88;;;;;;;7.35;65.24;99517.34;10300290;28;20607;-56
2021/05/07 04:37:53;;;;;;;14.57;13.18;;;;;;;7.67;64.87;99549.22;10298275;28;20050;-57
2021/05/07 04:42:54;;;;;;;15.93;14.30;;;;;;;7.50;63.09;99539.13;10297318;28;20716;-56
2021/05/07 04:47:56;;;;;;;16.67;15.10;;;;;;;7.72;64.05;99556.81;10295553;28;20153;-56
2021/05/07 04:52:57;;;;;;;16.98;15.38;;;;;;;7.82;62.43;99562.19;10287814;28;20128;-57
2021/05/07 04:57:58;;;;;;;17.08;15.50;;;;;;;7.89;63.42;99555.47;10293315;28;20054;-56
2021/05/07 05:02:59;;;;;;;18.25;16.58;;;;;;;8.10;63.29;99572.25;10296959;28;21062;-56
2021/05/07 05:08:00;;;;;;;15.50;14.20;;;;;;;7.99;60.70;99542.28;10247779;28;20062;-53
2021/05/07 05:13:01;;;;;;;18.60;16.65;;;;;;;8.07;62.41;99564.56;10249455;28;20058;-56
2021/05/07 05:18:02;;;;;;;18.33;16.55;;;;;;;8.10;61.37;99559.00;10243286;28;20051;-53
2021/05/07 05:23:03;;;;;;;17.05;15.50;;;;;;;8.25;61.13;99586.09;10252030;28;21288;-56
2021/05/07 05:28:04;;;;;;;16.83;15.20;;;;;;;8.34;61.28;99589.78;10252779;28;20047;-53
2021/05/07 05:33:05;;;;;;;16.80;15.20;;;;;;;8.01;62.10;99601.34;10253789;28;20046;-54
2021/05/07 05:38:07;;;;;;;17.73;15.85;;;;;;;8.11;63.06;99603.13;10268560;28;20101;-57
2021/05/07 05:43:08;;;;;;;17.83;16.15;;;;;;;8.34;63.74;99608.38;10250992;28;20464;-54
2021/05/07 05:48:14;;;;;;;19.38;17.48;;;;;;;8.44;63.00;99621.75;10255768;28;20177;-56
2021/05/07 05:53:16;;;;;;;16.85;15.13;;;;;;;8.64;62.08;99623.59;10252622;28;20138;-55
2021/05/07 05:58:17;;;;;;;17.05;15.35;;;;;;;8.67;62.87;99633.13;10246503;28;20062;-55
2021/05/07 06:03:18;;;;;;;15.98;14.48;;;;;;;8.57;62.71;99633.06;10242917;28;20043;-56
2021/05/07 06:08:19;;;;;;;16.80;15.20;;;;;;;8.63;62.74;99643.16;10244895;28;20143;-54
2021/05/07 06:13:20;;;;;;;17.17;15.48;;;;;;;8.71;62.29;99621.28;10252614;28;20267;-56
2021/05/07 06:18:21;;;;;;;15.80;14.30;;;;;;;8.70;60.65;99645.31;10247382;28;20631;-56
2021/05/07 06:23:22;;;;;;;14.98;13.48;;;;;;;8.76;61.73;99648.28;10248850;28;20055;-54
2021/05/07 06:28:23;;;;;;;15.00;13.50;;;;;;;9.26;66.24;99666.25;10241895;28;20689;-56
2021/05/07 06:33:26;;;;;;;14.48;12.32;;;;;;;9.54;60.38;99663.94;10247902;28;20132;-55
2021/05/07 06:38:27;;;;;;;14.63;13.05;;;;;;;9.02;59.07;99671.81;10247488;28;20124;-57
2021/05/07 06:43:28;;;;;;;13.38;12.02;;;;;;;8.58;59.53;99673.69;10251411;28;20642;-56
2021/05/07 06:48:29;;;;;;;13.30;11.90;;;;;;;8.60;59.54;99685.00;10247737;28;20492;-56
2021/05/07 06:53:30;;;;;;;11.90;10.70;;;;;;;8.95;57.73;99689.25;10250924;28;20058;-57
2021/05/07 06:58:32;;;;;;;12.27;11.07;;;;;;;8.96;56.01;99680.28;10255687;28;20053;-54
2021/05/07 07:03:33;;;;;;;12.18;10.65;;;;;;;8.89;57.61;99679.97;10251844;28;20558;-58
2021/05/07 07:08:34;;;;;;;13.38;11.98;;;;;;;8.99;57.11;99693.31;10250670;28;20059;-54
2021/05/07 07:13:35;;;;;;;11.75;10.57;;;;;;;8.95;58.23;99691.91;10253010;28;20065;-56
2021/05/07 07:18:36;;;;;;;10.57;9.48;;;;;;;9.14;56.76;99704.47;10258455;28;20058;-54
2021/05/07 07:23:38;;;;;;;9.02;8.13;;;;;;;9.57;53.57;99700.03;10259802;28;20057;-55
2021/05/07 07:28:39;;;;;;;8.45;7.72;;;;;;;9.80;53.98;99714.81;10256400;28;20503;-56
2021/05/07 07:33:40;;;;;;;8.57;7.78;;;;;;;10.20;52.65;99708.72;10278241;28;20059;-57
2021/05/07 07:38:42;;;;;;;7.88;7.20;;;;;;;10.35;52.68;99705.72;10252582;28;20130;-55
2021/05/07 07:43:43;;;;;;;9.20;8.30;;;;;;;10.26;51.80;99700.19;10250779;28;20046;-56
2021/05/07 07:48:45;;;;;;;10.02;8.45;;;;;;;10.02;50.44;99713.00;10252003;28;20081;-56
2021/05/07 07:53:47;;;;;;;8.90;8.10;;;;;;;10.07;52.00;99718.75;10252114;28;20057;-57
2021/05/07 07:58:47;;;;;;;9.32;8.05;;;;;;;10.23;50.17;99727.06;10256968;28;20050;-56
2021/05/07 08:03:49;;;;;;;9.05;8.15;;;;;;;10.59;49.03;99718.66;10256225;28;20390;-56
2021/05/07 08:08:50;;;;;;;7.03;6.38;;;;;;;10.59;46.45;99730.16;10254611;28;20086;-56
2021/05/07 08:13:51;;;;;;;8.00;7.03;;;;;;;10.48;48.42;99727.63;10251939;28;20058;-63
2021/05/07 08:18:52;;;;;;;8.27;7.47;;;;;;;10.89;47.25;99748.84;10252397;28;20050;-57
2021/05/07 08:23:53;;;;;;;9.10;7.82;;;;;;;10.91;46.07;99728.25;10251305;28;20054;-56
2021/05/07 08:28:54;;;;;;;7.18;6.40;;;;;;;11.01;45.96;99757.56;10247469;28;20481;-56
2021/05/07 08:33:56;;;;;;;6.78;6.07;;;;;;;11.07;44.22;99755.19;10253926;28;20055;-55
2021/05/07 08:38:57;;;;;;;7.53;6.85;;;;;;;11.23;44.49;99749.31;10244682;28;20062;-58
2021/05/07 08:43:58;;;;;;;6.85;6.00;;;;;;;11.66;44.92;99774.69;10243635;28;20346;-54
2021/05/07 08:48:59;;;;;;;7.13;6.43;;;;;;;11.79;45.47;99774.34;10255236;28;20201;-57
2021/05/07 08:54:01;;;;;;;9.32;6.80;;;;;;;11.84;45.39;99757.94;10256539;28;20066;-55
2021/05/07 08:59:08;;;;;;;7.90;7.13;;;;;;;12.13;43.06;99783.72;10258491;28;20050;-57
2021/05/07 09:04:17;;;;;;;7.55;6.50;;;;;;;12.50;43.11;99774.88;10261238;28;20058;-57
2021/05/07 09:09:26;;;;;;;8.75;7.13;;;;;;;12.92;40.95;99777.03;10260126;28;20515;-60
2021/05/07 09:14:31;;;;;;;7.18;6.47;;;;;;;12.72;43.73;99774.47;10259545;28;20048;-56
2021/05/07 09:20:21;;;;;;;7.13;6.38;;;;;;;13.12;41.57;99793.78;10258122;28;20049;-57
2021/05/07 09:25:23;;;;;;;6.60;5.88;;;;;;;13.50;40.88;99777.63;10254421;28;20178;-54
2021/05/07 09:30:27;;;;;;;6.78;5.82;;;;;;;13.66;38.90;99777.78;10253225;28;20049;-54
2021/05/07 09:35:30;;;;;;;7.70;7.03;;;;;;;13.00;39.91;99787.81;10254228;28;21702;-54
2021/05/07 09:40:32;;;;;;;6.45;5.85;;;;;;;12.82;41.08;99789.59;10251050;28;20166;-56
2021/05/07 09:45:34;;;;;;;6.07;5.57;;;;;;;12.62;41.79;99797.72;10250694;28;20511;-56
2021/05/07 09:50:40;;;;;;;6.35;5.75;;;;;;;12.04;42.34;99801.44;10239272;28;20058;-57
2021/05/07 09:55:42;;;;;;;6.53;5.57;;;;;;;11.62;45.08;99841.72;10264166;28;20058;-55
2021/05/07 10:00:44;;;;;;;5.78;5.20;;;;;;;11.10;49.99;99866.78;10250063;28;20087;-56
2021/05/07 10:05:45;;;;;;;5.93;4.97;;;;;;;11.01;51.46;99885.41;10257279;28;20054;-58
2021/05/07 10:10:48;;;;;;;2.85;1.27;;;;;;;8.75;59.46;99929.69;10258807;28;20125;-56
2021/05/07 10:16:00;;;;;;;2.95;1.30;;;;;;;7.02;69.92;99959.16;10281917;23;20066;-58
2021/05/07 10:21:09;;;;;;;2.00;1.70;;;;;;;6.53;71.99;99981.06;10273936;28;20458;-58
2021/05/07 10:26:10;;;;;;;2.55;1.67;;;;;;;6.86;71.56;99995.56;10280551;28;20077;-60
2021/05/07 10:31:14;;;;;;;2.53;2.13;;;;;;;7.17;70.13;99999.56;10284733;28;20054;-58
2021/05/07 10:36:15;;;;;;;3.17;2.63;;;;;;;7.16;72.45;99989.09;10281949;28;20765;-59
2021/05/07 10:41:16;;;;;;;4.03;2.72;;;;;;;7.44;70.52;99988.81;10286319;28;20116;-60
2021/05/07 10:46:21;;;;;;;2.30;2.05;;;;;;;8.60;69.29;99971.53;10288488;28;20052;-59
2021/05/07 10:51:25;;;;;;;3.13;1.67;;;;;;;10.37;65.46;99964.50;10281227;28;20054;-62
2021/05/07 10:56:34;;;;;;;1.30;1.05;;;;;;;12.17;58.71;99964.75;10276695;28;20085;-58
2021/05/07 11:01:35;;;;;;;2.13;1.58;;;;;;;13.55;56.25;99967.84;10273993;28;20042;-62
2021/05/07 11:06:42;;;;;;;1.60;1.50;;;;;;;14.29;52.10;99987.31;10286991;28;20434;-63
2021/05/07 11:11:51;;;;;;;3.92;1.83;;;;;;;14.83;50.65;99981.88;10285470;28;20053;-62
2021/05/07 11:16:53;;;;;;;2.58;1.85;;;;;;;15.77;47.85;99998.91;10280730;28;20062;-58
2021/05/07 11:21:58;;;;;;;1.77;1.67;;;;;;;15.59;48.53;100017.81;10273401;28;20141;-66
2021/05/07 11:27:02;;;;;;;3.42;2.20;;;;;;;15.71;46.63;100012.97;10275225;28;20046;-59
2021/05/07 11:32:23;;;;;;;2.40;2.08;;;;;;;15.51;46.22;100015.09;10276780;28;21091;-62
2021/05/07 11:37:27;;;;;;;3.05;2.13;;;;;;;15.62;44.27;99997.88;10279684;28;20054;-61
2021/05/07 11:42:36;;;;;;;2.60;2.22;;;;;;;15.32;46.00;100013.50;10281836;28;20121;-60
2021/05/07 11:47:39;;;;;;;2.13;1.92;;;;;;;15.34;41.71;100006.13;10273698;28;20038;-60
2021/05/07 11:52:43;;;;;;;2.15;1.95;;;;;;;14.05;45.13;100039.63;10280774;28;20046;-61
2021/05/07 11:57:58;;;;;;;2.88;2.40;;;;;;;12.85;47.65;100037.72;10284027;28;20072;-63
2021/05/07 12:03:10;;;;;;;3.42;3.13;;;;;;;12.53;49.50;100060.22;10290327;28;20454;-60
2021/05/07 12:08:12;;;;;;;4.03;3.72;;;;;;;11.48;49.48;100074.88;10272114;28;20052;-59
2021/05/07 12:13:24;;;;;;;5.00;4.60;;;;;;;11.05;50.26;100086.56;10266791;28;20058;-60
2021/05/07 12:18:25;;;;;;;3.95;3.55;;;;;;;11.84;50.88;100088.63;10271650;28;20118;-59
2021/05/07 12:23:40;;;;;;;4.43;4.00;;;;;;;12.87;47.85;100091.84;10270919;28;20456;-60
2021/05/07 12:28:53;;;;;;;4.25;3.72;;;;;;;13.36;46.30;100089.09;10271192;28;20078;-61
2021/05/07 12:33:56;;;;;;;4.00;3.70;;;;;;;14.08;42.39;100087.50;10269278;28;20081;-58
2021/05/07 12:39:06;;;;;;;3.53;3.15;;;;;;;12.82;46.66;100104.78;10275487;28;20078;-58
2021/05/07 12:44:13;;;;;;;3.65;3.35;;;;;;;12.97;45.59;100124.75;10271074;28;20050;-61
2021/05/07 12:49:14;;;;;;;4.20;3.90;;;;;;;12.01;45.83;100137.84;10268732;28;22170;-58
2021/05/07 12:54:15;;;;;;;5.22;4.30;;;;;;;12.33;45.42;100148.31;10266194;28;20054;-58
2021/05/07 12:59:16;;;;;;;4.35;3.95;;;;;;;11.61;47.79;100163.47;10269685;28;20046;-58
2021/05/07 13:04:17;;;;;;;4.22;3.92;;;;;;;11.28;47.79;100168.03;10267005;28;20062;-60
2021/05/07 13:09:18;;;;;;;3.60;3.30;;;;;;;10.77;50.33;100184.75;10265453;28;20050;-60
2021/05/07 13:14:19;;;;;;;2.40;2.20;;;;;;;11.88;48.15;100183.38;10263716;28;20057;-59
2021/05/07 13:19:20;;;;;;;2.30;2.10;;;;;;;12.17;46.55;100198.69;10269494;28;20043;-61
2021/05/07 13:24:21;;;;;;;2.10;2.00;;;;;;;13.02;44.30;100196.47;10268043;28;21789;-58
2021/05/07 13:29:21;;;;;;;1.60;1.50;;;;;;;12.52;44.53;100211.59;10275767;28;20109;-62
2021/05/07 13:34:23;;;;;;;2.72;1.73;;;;;;;12.20;44.92;100209.09;10275335;28;20387;-60
2021/05/07 13:39:25;;;;;;;1.52;1.13;;;;;;;12.12;44.97;100203.59;10274104;28;20100;-59
2021/05/07 13:44:30;;;;;;;1.90;1.40;;;;;;;11.87;45.21;100211.03;10273498;28;20048;-60
2021/05/07 13:49:31;;;;;;;1.10;1.00;;;;;;;11.78;44.09;100222.50;10277522;28;20117;-60
2021/05/07 13:54:32;;;;;;;1.30;1.20;;;;;;;11.45;43.74;100209.28;10275873;28;20129;-61
2021/05/07 13:59:33;;;;;;;2.05;1.00;;;;;;;11.96;42.72;100220.94;10286242;28;20061;-60
2021/05/07 14:04:34;;;;;;;1.20;1.10;;;;;;;12.69;41.10;100227.91;10273781;28;20054;-60
2021/05/07 14:09:35;;;;;;;1.45;1.10;;;;;;;13.01;40.59;100235.69;10275074;28;20154;-61
2021/05/07 14:14:36;;;;;;;2.55;1.05;;;;;;;12.17;40.24;100246.72;10272095;28;20077;-61
2021/05/07 14:19:37;;;;;;;1.15;1.10;;;;;;;11.89;42.58;100262.44;10269985;28;20550;-61
2021/05/07 14:24:38;;;;;;;2.05;1.10;;;;;;;11.91;42.93;100270.31;10272968;28;20058;-61
2021/05/07 14:29:39;;;;;;;1.60;1.02;;;;;;;12.30;42.30;100273.19;10274939;28;20050;-60
2021/05/07 14:34:40;;;;;;;2.13;1.27;;;;;;;12.08;42.00;100266.22;10273858;28;20046;-60
2021/05/07 14:39:42;;;;;;;1.30;1.20;;;;;;;12.49;41.77;100265.25;10273097;28;20153;-61
2021/05/07 14:44:43;;;;;;;1.15;1.05;;;;;;;12.19;40.01;100274.97;10273260;28;20050;-61
2021/05/07 14:49:44;;;;;;;1.88;1.00;;;;;;;12.43;40.95;100280.94;10273396;28;20116;-61
2021/05/07 14:54:45;;;;;;;1.20;0.82;;;;;;;12.37;39.15;100277.03;10274978;28;20130;-60
2021/05/07 14:59:47;;;;;;;1.30;1.20;;;;;;;12.33;39.04;100287.09;10272304;28;20127;-62
2021/05/07 15:04:48;;;;;;;1.77;1.25;;;;;;;12.18;38.63;100293.78;10272837;28;20126;-60
2021/05/07 15:09:49;;;;;;;1.20;1.08;;;;;;;12.07;39.27;100292.06;10273208;28;20054;-61
2021/05/07 15:14:50;;;;;;;1.95;1.50;;;;;;;12.22;36.85;100305.91;10272896;28;20499;-61
2021/05/07 15:19:54;;;;;;;1.88;1.40;;;;;;;12.12;35.63;100310.34;10274068;28;20042;-60
2021/05/07 15:24:56;;;;;;;3.13;1.52;;;;;;;11.86;36.75;100310.72;10272766;28;20128;-61
2021/05/07 15:29:58;;;;;;;2.00;1.33;;;;;;;11.84;37.02;100299.31;10270489;28;20196;-60
2021/05/07 15:35:00;;;;;;;1.63;1.40;;;;;;;11.81;36.83;100310.25;10271779;28;20043;-60
2021/05/07 15:40:05;;;;;;;2.75;1.50;;;;;;;11.63;37.06;100321.50;10271122;28;21504;-60
2021/05/07 15:45:25;;;;;;;1.50;1.40;;;;;;;11.54;37.66;100329.41;10270768;28;20120;-60
2021/05/07 15:50:27;;;;;;;2.08;1.75;;;;;;;11.64;38.16;100331.16;10272432;28;20089;-61
2021/05/07 15:55:28;;;;;;;2.53;1.80;;;;;;;11.84;38.20;100323.31;10268451;28;20070;-59
2021/05/07 16:00:29;;;;;;;1.67;1.50;;;;;;;12.10;37.15;100336.28;10268481;28;20456;-59
2021/05/07 16:05:30;;;;;;;2.47;1.67;;;;;;;12.06;37.85;100337.53;10266357;28;20058;-60
2021/05/07 16:10:35;;;;;;;1.92;1.35;;;;;;;11.94;37.50;100355.44;10266569;28;20051;-59
2021/05/07 16:15:36;;;;;;;2.22;1.50;;;;;;;11.83;38.19;100350.97;10264512;28;20058;-60
2021/05/07 16:20:37;;;;;;;2.75;1.52;;;;;;;11.92;37.34;100344.00;10283828;23;22322;-68
2021/05/07 16:25:58;;;;;;;1.55;1.20;;;;;;;11.78;36.68;100351.34;10267361;28;20058;-69
2021/05/07 16:31:04;;;;;;;1.75;0.90;;;;;;;11.54;35.80;100337.41;10272665;28;20513;-68
2021/05/07 16:36:06;;;;;;;1.38;1.02;;;;;;;11.73;36.34;100363.38;10266157;28;20811;-68
2021/05/07 16:41:08;;;;;;;1.85;1.05;;;;;;;11.72;37.47;100357.19;10266215;28;20503;-68
2021/05/07 16:46:10;;;;;;;2.55;0.88;;;;;;;11.55;37.52;100345.28;10271561;28;20133;-69
2021/05/07 16:51:11;;;;;;;1.77;0.98;;;;;;;11.89;38.01;100363.78;10269494;28;20480;-68
2021/05/07 16:56:12;;;;;;;1.50;1.00;;;;;;;11.76;38.03;100355.13;10290756;28;20113;-68
2021/05/07 17:01:13;;;;;;;2.20;1.23;;;;;;;11.78;37.75;100361.16;10264207;28;22226;-68
2021/05/07 17:06:14;;;;;;;2.05;1.10;;;;;;;11.87;37.28;100365.72;10265238;28;20070;-69
2021/05/07 17:11:15;;;;;;;1.73;1.40;;;;;;;11.98;37.34;100372.84;10263531;28;20185;-68
2021/05/07 17:16:16;;;;;;;1.40;1.20;;;;;;;11.79;37.89;100371.72;10260314;28;20290;-68
2021/05/07 17:21:17;;;;;;;1.48;1.02;;;;;;;11.70;38.34;100390.31;10264765;28;20065;-68
2021/05/07 17:26:20;;;;;;;2.53;1.27;;;;;;;11.62;39.01;100361.59;10268470;28;20050;-69
2021/05/07 17:31:22;;;;;;;1.10;1.00;;;;;;;11.68;38.21;100377.94;10270549;28;20138;-68
2021/05/07 17:36:23;;;;;;;2.80;1.80;;;;;;;11.64;36.38;100381.00;10272315;28;20078;-69
2021/05/07 17:41:24;;;;;;;2.47;1.90;;;;;;;11.74;37.58;100397.06;10267505;28;20050;-68
2021/05/07 17:46:26;;;;;;;2.33;1.30;;;;;;;11.63;38.50;100398.81;10265988;28;20062;-68
2021/05/07 17:51:27;;;;;;;2.03;1.00;;;;;;;11.58;39.18;100398.34;10268969;28;20055;-68
2021/05/07 17:56:28;;;;;;;2.33;1.55;;;;;;;11.47;39.52;100393.06;10270527;28;20060;-66
2021/05/07 18:01:29;;;;;;;2.47;1.08;;;;;;;11.55;39.42;100401.25;10276135;28;20054;-67
2021/05/07 18:06:30;;;;;;;2.53;1.13;;;;;;;11.53;39.55;100413.00;10273111;28;20051;-67
2021/05/07 18:11:31;;;;;;;1.70;1.35;;;;;;;11.44;40.00;100398.63;10266411;28;20109;-68
2021/05/07 18:16:32;;;;;;;1.70;1.45;;;;;;;11.36;40.21;100393.06;10274807;28;20517;-68
2021/05/07 18:21:35;;;;;;;1.27;0.93;;;;;;;11.32;40.89;100404.00;10276841;28;20055;-68
2021/05/07 18:26:36;;;;;;;1.98;1.42;;;;;;;11.37;41.96;100421.44;10278870;28;20077;-69
2021/05/07 18:31:38;;;;;;;1.83;1.05;;;;;;;11.23;42.60;100403.88;10269960;28;20066;-67
2021/05/07 18:36:40;;;;;;;3.42;1.80;;;;;;;11.22;41.67;100412.88;10270335;28;20047;-68
2021/05/07 18:41:41;;;;;;;2.85;1.40;;;;;;;11.23;42.02;100426.06;10269719;28;20820;-68
2021/05/07 18:46:42;;;;;;;2.08;1.50;;;;;;;11.07;42.34;100414.94;10267585;28;20054;-68
2021/05/07 18:51:43;;;;;;;2.55;2.05;;;;;;;11.11;41.71;100437.72;10272634;28;20584;-68
2021/05/07 18:56:45;;;;;;;3.20;2.42;;;;;;;11.00;42.95;100425.22;10285923;28;20077;-69
2021/05/07 19:01:46;;;;;;;2.65;1.95;;;;;;;10.88;43.54;100427.03;10267474;28;20105;-69
2021/05/07 19:06:48;;;;;;;2.00;1.80;;;;;;;10.83;43.58;100428.38;10269263;28;20038;-68
2021/05/07 19:11:49;;;;;;;3.75;1.98;;;;;;;10.87;44.54;100444.00;10269129;28;20043;-68
2021/05/07 19:16:50;;;;;;;5.15;4.65;;;;;;;10.83;44.51;100444.38;10275997;28;20464;-69
2021/05/07 19:21:51;;;;;;;6.20;4.35;;;;;;;10.72;44.95;100448.72;10277221;28;20063;-69
2021/05/07 19:26:53;;;;;;;5.47;3.78;;;;;;;10.68;46.32;100441.09;10280585;28;20072;-67
2021/05/07 19:31:56;;;;;;;5.45;4.90;;;;;;;10.55;46.26;100414.56;10275571;28;20062;-69
2021/05/07 19:36:57;;;;;;;4.32;3.92;;;;;;;10.81;46.91;100465.78;10272483;28;20597;-70
2021/05/07 19:42:00;;;;;;;4.07;3.13;;;;;;;10.71;45.24;100468.31;10268785;28;20054;-67
2021/05/07 19:47:01;;;;;;;4.90;3.17;;;;;;;10.63;46.75;100464.53;10276257;28;20058;-68
2021/05/07 19:52:03;;;;;;;3.92;3.15;;;;;;;10.56;45.90;100465.03;10269289;28;20050;-69
2021/05/07 19:57:04;;;;;;;4.95;3.03;;;;;;;10.56;45.92;100466.84;10270482;28;20555;-68
2021/05/07 20:02:05;;;;;;;4.05;3.40;;;;;;;10.42;46.46;100457.25;10279070;28;20053;-68
2021/05/07 20:07:07;;;;;;;5.40;3.95;;;;;;;10.44;46.68;100487.25;10277729;28;20078;-69
2021/05/07 20:12:18;;;;;;;4.93;3.63;;;;;;;10.26;46.44;100463.69;10270240;28;20386;-67
2021/05/07 20:17:19;;;;;;;6.18;4.25;;;;;;;10.22;47.58;100469.38;10271813;28;20525;-68
2021/05/07 20:22:21;;;;;;;5.13;3.75;;;;;;;10.11;47.46;100462.22;10276163;28;20053;-67
2021/05/07 20:27:22;;;;;;;4.97;4.05;;;;;;;10.13;48.07;100467.41;10273892;28;20065;-68
2021/05/07 20:32:24;;;;;;;5.05;3.70;;;;;;;10.03;47.29;100472.59;10275312;28;20038;-68
2021/05/07 20:37:26;;;;;;;7.93;5.07;;;;;;;9.97;48.06;100462.38;10266415;28;20190;-68
2021/05/07 20:42:28;;;;;;;3.90;3.58;;;;;;;10.03;48.47;100473.44;10268171;28;20047;-68
2021/05/07 20:47:28;;;;;;;5.35;3.20;;;;;;;9.98;47.81;100472.06;10277421;28;20058;-68
2021/05/07 20:52:30;;;;;;;4.70;3.78;;;;;;;9.86;48.85;100464.06;10274259;28;21443;-68
2021/05/07 20:57:32;;;;;;;3.92;3.45;;;;;;;9.86;47.53;100482.66;10269338;28;20140;-68
2021/05/07 21:02:33;;;;;;;4.75;4.32;;;;;;;9.65;48.20;100457.66;10267332;28;20461;-68
2021/05/07 21:07:36;;;;;;;6.78;3.40;;;;;;;9.65;48.57;100468.28;10288733;28;20676;-67
2021/05/07 21:12:37;;;;;;;3.90;3.50;;;;;;;9.67;47.58;100466.38;10291057;28;20130;-67
2021/05/07 21:17:38;;;;;;;6.70;4.60;;;;;;;9.69;49.37;100475.91;10298040;28;20077;-67
2021/05/07 21:22:39;;;;;;;4.40;4.00;;;;;;;9.64;48.86;100471.91;10295559;28;20050;-68
2021/05/07 21:27:40;;;;;;;5.28;4.78;;;;;;;9.60;49.60;100484.56;10302652;28;20468;-68
2021/05/07 21:32:41;;;;;;;4.70;4.20;;;;;;;9.57;49.75;100489.25;10296894;28;20422;-67
2021/05/07 21:37:43;;;;;;;5.88;4.28;;;;;;;9.51;50.03;100478.09;10294190;28;20066;-67
2021/05/07 21:42:44;;;;;;;4.60;3.80;;;;;;;9.42;50.44;100484.09;10291974;28;20054;-66
2021/05/07 21:47:45;;;;;;;4.57;3.60;;;;;;;9.35;49.76;100477.50;10294773;28;20054;-66
2021/05/07 21:52:46;;;;;;;4.93;3.60;;;;;;;9.26;49.95;100472.84;10302567;28;20062;-67
2021/05/07 21:57:53;;;;;;;3.53;3.22;;;;;;;9.10;49.62;100450.06;10302166;28;20596;-67
2021/05/07 22:02:55;;;;;;;4.38;3.65;;;;;;;9.16;50.17;100478.84;10310424;28;20046;-68
2021/05/07 22:07:56;;;;;;;5.03;4.00;;;;;;;9.11;50.40;100480.97;10302071;28;20046;-68
2021/05/07 22:12:57;;;;;;;6.50;5.22;;;;;;;9.06;51.32;100477.78;10303955;28;20046;-66
2021/05/07 22:17:58;;;;;;;8.15;4.38;;;;;;;9.15;51.28;100498.38;10303831;28;20412;-66
2021/05/07 22:22:59;;;;;;;8.88;5.03;;;;;;;9.15;51.46;100495.72;10280504;23;20051;-60
2021/05/07 22:28:01;;;;;;;5.78;4.82;;;;;;;8.95;52.42;100499.78;10244837;28;20050;-60
2021/05/07 22:33:02;;;;;;;7.45;6.28;;;;;;;8.85;52.69;100488.94;10247672;28;20039;-60
2021/05/07 22:38:03;;;;;;;7.78;7.07;;;;;;;8.88;53.69;100500.31;10250704;28;20191;-58
2021/05/07 22:43:06;;;;;;;8.57;6.20;;;;;;;8.79;53.34;100507.94;10252034;28;20043;-59
2021/05/07 22:48:08;;;;;;;5.80;5.20;;;;;;;8.72;53.81;100517.31;10254665;28;20496;-59
2021/05/07 22:53:09;;;;;;;5.80;5.20;;;;;;;8.77;53.86;100515.19;10254645;28;20109;-61
2021/05/07 22:58:10;;;;;;;6.25;5.47;;;;;;;8.70;53.95;100515.72;10264323;28;20046;-58
2021/05/07 23:03:11;;;;;;;7.43;6.07;;;;;;;8.67;54.14;100508.81;10263256;28;20079;-60
2021/05/07 23:08:12;;;;;;;6.88;5.32;;;;;;;8.62;54.20;100513.59;10260012;28;20155;-61
2021/05/07 23:13:13;;;;;;;7.00;6.07;;;;;;;8.60;54.55;100511.03;10256405;28;20051;-59
2021/05/07 23:18:16;;;;;;;5.50;4.88;;;;;;;8.56;54.44;100512.19;10255140;28;20614;-59
2021/05/07 23:23:17;;;;;;;6.47;5.28;;;;;;;8.57;54.26;100518.34;10253293;28;20043;-61